Denver (DEN/KDEN)

Information

Location
Denver, CO
Local Time
21:38 / 9:38 pm
GMT Time
03:38 / 3:38 am
Gates
C30
No FAA reported delays
METAR KDEN 260253Z 02007KT 10SM SCT060 BKN080 BKN110 BKN200 11/07 A2982 RMK AO2 WSHFT 0210 RAB05E39 PRESRR SLP034 TS DSPTD P0001 60001 T01060067 51042
TAF KDEN 260301Z 2603/2706 04007KT P6SM SCT060 BKN090 FM260500 29007KT P6SM VCSH SCT060 BKN090 BKN150 FM261200 23006KT P6SM SCT030 BKN080 TEMPO 2612/2615 BKN030 FM261800 12013KT P6SM VCTS SCT050CB BKN100 TEMPO 2620/2624 3SM TSRAGS BKN050CB FM270100 13009KT P6